Terminal Aerodrome Forecast
Issued by NWS Northern Indiana

Home | Current Version | Previous Version | Graphics & Text | Print | Product List | Glossary On
Versions: 1 2 3 4 5 6 7 8 9 10 11 12 13 14 15 16 17 18
000
FTUS43 KIWX 232300
TAFFWA
TAF
KFWA 232338Z 2400/2424 07012KT P6SM BKN012 OVC070
     FM240300 06008KT P6SM BKN040
     FM241000 08008KT P6SM FEW040 SCT250=

USA.gov is the U.S. government's official web portal to all federal, state and local government web resources and services.